GLD166 SSCK-SSHZ
Flight info
| Callsign | GLD166 |
|---|---|
| Flight time | 0h 58m |
| Altitude | 4500 |
| Route | 2718S05219W 2724S05241W 2725S05310W 2721S05327W 2729S05356W |
| Aircraft | C182/M-SDFGIRY/S |
Departure
| Time | 2026-05-07 11:58 |
|---|---|
| Airport | Olavo Cecco Rigon Airport (SSCK) |
Arrival
| Time | 2026-05-07 12:56 |
|---|---|
| Airport | Walter Bündchen Airport (SSHZ) |
| Time | Latitude | Longitude | Altitude | Speed | Heading |
|---|---|---|---|---|---|
| 2026-05-07 11:54 | -27.18369 | -52.04810 | 2461 ft | 2 kts | 24° |
| 2026-05-07 11:55 | -27.18324 | -52.04805 | 2461 ft | 13 kts | 314° |
| 2026-05-07 11:55 | -27.18239 | -52.04917 | 2464 ft | 24 kts | 310° |
| 2026-05-07 11:55 | -27.18110 | -52.05093 | 2465 ft | 35 kts | 310° |
| 2026-05-07 11:55 | -27.17961 | -52.05313 | 2470 ft | 27 kts | 328° |
| 2026-05-07 11:56 | -27.17926 | -52.05366 | 2471 ft | 1 kts | 104° |
| 2026-05-07 11:56 | -27.18011 | -52.05231 | 2469 ft | 43 kts | 130° |
| 2026-05-07 11:56 | -27.18270 | -52.04863 | 2494 ft | 73 kts | 126° |
| 2026-05-07 11:56 | -27.18616 | -52.04399 | 2667 ft | 75 kts | 121° |
| 2026-05-07 11:57 | -27.18773 | -52.03777 | 2738 ft | 92 kts | 79° |
| 2026-05-07 11:57 | -27.18380 | -52.03167 | 2773 ft | 106 kts | 36° |
| 2026-05-07 11:57 | -27.17644 | -52.03178 | 2857 ft | 124 kts | 330° |
| 2026-05-07 11:57 | -27.17080 | -52.03953 | 2971 ft | 137 kts | 297° |
| 2026-05-07 11:58 | -27.17089 | -52.05064 | 3065 ft | 154 kts | 256° |
| 2026-05-07 11:58 | -27.17665 | -52.06103 | 3175 ft | 162 kts | 232° |
| 2026-05-07 11:58 | -27.18307 | -52.07112 | 3301 ft | 157 kts | 245° |
| 2026-05-07 11:58 | -27.18886 | -52.08165 | 3422 ft | 159 kts | 244° |
| 2026-05-07 11:59 | -27.19494 | -52.09209 | 3553 ft | 164 kts | 244° |
| 2026-05-07 11:59 | -27.20128 | -52.10287 | 3661 ft | 166 kts | 243° |
| 2026-05-07 11:59 | -27.20762 | -52.11358 | 3794 ft | 165 kts | 245° |
| 2026-05-07 11:59 | -27.21428 | -52.12406 | 3912 ft | 164 kts | 244° |
| 2026-05-07 12:00 | -27.22089 | -52.13442 | 4032 ft | 166 kts | 243° |
| 2026-05-07 12:00 | -27.22719 | -52.14503 | 4147 ft | 160 kts | 250° |
| 2026-05-07 12:00 | -27.23254 | -52.15572 | 4261 ft | 154 kts | 255° |
| 2026-05-07 12:00 | -27.23703 | -52.16647 | 4321 ft | 143 kts | 258° |
| 2026-05-07 12:01 | -27.24151 | -52.17660 | 4482 ft | 147 kts | 257° |
| 2026-05-07 12:01 | -27.24606 | -52.18712 | 4598 ft | 150 kts | 258° |
| 2026-05-07 12:01 | -27.24915 | -52.19809 | 4732 ft | 147 kts | 270° |
| 2026-05-07 12:01 | -27.25197 | -52.20931 | 4838 ft | 149 kts | 271° |
| 2026-05-07 12:02 | -27.25521 | -52.22035 | 4761 ft | 155 kts | 268° |
| 2026-05-07 12:02 | -27.25830 | -52.23211 | 4602 ft | 161 kts | 269° |
| 2026-05-07 12:02 | -27.26114 | -52.24456 | 4492 ft | 163 kts | 269° |
| 2026-05-07 12:02 | -27.26390 | -52.25682 | 4491 ft | 162 kts | 269° |
| 2026-05-07 12:03 | -27.26666 | -52.26913 | 4499 ft | 163 kts | 269° |
| 2026-05-07 12:03 | -27.26941 | -52.28147 | 4493 ft | 163 kts | 267° |
| 2026-05-07 12:03 | -27.27193 | -52.29383 | 4495 ft | 162 kts | 268° |
| 2026-05-07 12:03 | -27.27421 | -52.30621 | 4495 ft | 161 kts | 269° |
| 2026-05-07 12:04 | -27.27671 | -52.31838 | 4499 ft | 158 kts | 269° |
| 2026-05-07 12:04 | -27.27905 | -52.33034 | 4491 ft | 154 kts | 267° |
| 2026-05-07 12:04 | -27.28088 | -52.34202 | 4491 ft | 151 kts | 272° |
| 2026-05-07 12:04 | -27.28340 | -52.35360 | 4476 ft | 150 kts | 269° |
| 2026-05-07 12:05 | -27.28628 | -52.36472 | 4492 ft | 147 kts | 269° |
| 2026-05-07 12:05 | -27.28911 | -52.37615 | 4485 ft | 154 kts | 269° |
| 2026-05-07 12:05 | -27.29185 | -52.38781 | 4496 ft | 155 kts | 269° |
| 2026-05-07 12:05 | -27.29451 | -52.39946 | 4501 ft | 157 kts | 269° |
| 2026-05-07 12:06 | -27.29726 | -52.41160 | 4504 ft | 162 kts | 269° |
| 2026-05-07 12:06 | -27.30000 | -52.42389 | 4509 ft | 162 kts | 268° |
| 2026-05-07 12:06 | -27.30264 | -52.43624 | 4509 ft | 163 kts | 268° |
| 2026-05-07 12:06 | -27.30524 | -52.44841 | 4521 ft | 162 kts | 269° |
| 2026-05-07 12:07 | -27.30810 | -52.46083 | 4514 ft | 165 kts | 269° |
| 2026-05-07 12:07 | -27.31093 | -52.47317 | 4512 ft | 163 kts | 269° |
| 2026-05-07 12:07 | -27.31366 | -52.48523 | 4514 ft | 157 kts | 269° |
| 2026-05-07 12:07 | -27.31644 | -52.49718 | 4512 ft | 158 kts | 269° |
| 2026-05-07 12:08 | -27.31934 | -52.50916 | 4510 ft | 160 kts | 269° |
| 2026-05-07 12:08 | -27.32223 | -52.52109 | 4462 ft | 155 kts | 270° |
| 2026-05-07 12:08 | -27.32538 | -52.53174 | 4466 ft | 142 kts | 267° |
| 2026-05-07 12:08 | -27.32848 | -52.54233 | 4460 ft | 143 kts | 268° |
| 2026-05-07 12:09 | -27.33156 | -52.55342 | 4470 ft | 153 kts | 268° |
| 2026-05-07 12:09 | -27.33465 | -52.56520 | 4477 ft | 160 kts | 268° |
| 2026-05-07 12:09 | -27.33775 | -52.57727 | 4494 ft | 160 kts | 268° |
| 2026-05-07 12:09 | -27.34077 | -52.58942 | 4489 ft | 162 kts | 268° |
| 2026-05-07 12:10 | -27.34368 | -52.60146 | 4486 ft | 159 kts | 269° |
| 2026-05-07 12:10 | -27.34664 | -52.61357 | 4491 ft | 162 kts | 268° |
| 2026-05-07 12:10 | -27.34960 | -52.62570 | 4497 ft | 163 kts | 269° |
| 2026-05-07 12:10 | -27.35257 | -52.63821 | 4507 ft | 167 kts | 268° |
| 2026-05-07 12:11 | -27.35558 | -52.65075 | 4502 ft | 165 kts | 268° |
| 2026-05-07 12:11 | -27.35859 | -52.66306 | 4502 ft | 161 kts | 268° |
| 2026-05-07 12:11 | -27.36158 | -52.67540 | 4488 ft | 164 kts | 268° |
| 2026-05-07 12:11 | -27.36465 | -52.68774 | 4495 ft | 163 kts | 268° |
| 2026-05-07 12:12 | -27.36768 | -52.70000 | 4472 ft | 162 kts | 268° |
| 2026-05-07 12:12 | -27.37060 | -52.71204 | 4475 ft | 158 kts | 269° |
| 2026-05-07 12:12 | -27.37351 | -52.72401 | 4509 ft | 167 kts | 268° |
| 2026-05-07 12:12 | -27.37643 | -52.73693 | 4487 ft | 170 kts | 269° |
| 2026-05-07 12:13 | -27.37947 | -52.74946 | 4495 ft | 163 kts | 268° |
| 2026-05-07 12:13 | -27.38254 | -52.76175 | 4491 ft | 162 kts | 268° |
| 2026-05-07 12:13 | -27.38567 | -52.77384 | 4488 ft | 160 kts | 268° |
| 2026-05-07 12:13 | -27.38880 | -52.78577 | 4486 ft | 158 kts | 268° |
| 2026-05-07 12:14 | -27.39195 | -52.79770 | 4478 ft | 158 kts | 268° |
| 2026-05-07 12:14 | -27.39509 | -52.80951 | 4473 ft | 157 kts | 268° |
| 2026-05-07 12:14 | -27.39825 | -52.82138 | 4478 ft | 160 kts | 268° |
| 2026-05-07 12:14 | -27.40142 | -52.83342 | 4461 ft | 160 kts | 268° |
| 2026-05-07 12:15 | -27.40448 | -52.84531 | 4468 ft | 160 kts | 268° |
| 2026-05-07 12:15 | -27.40761 | -52.85751 | 4466 ft | 163 kts | 268° |
| 2026-05-07 12:15 | -27.41076 | -52.86986 | 4480 ft | 166 kts | 268° |
| 2026-05-07 12:15 | -27.41390 | -52.88248 | 4473 ft | 168 kts | 268° |
| 2026-05-07 12:16 | -27.41700 | -52.89506 | 4474 ft | 165 kts | 268° |
| 2026-05-07 12:16 | -27.42024 | -52.90742 | 4473 ft | 163 kts | 268° |
| 2026-05-07 12:16 | -27.42349 | -52.91960 | 4466 ft | 165 kts | 268° |
| 2026-05-07 12:16 | -27.42685 | -52.93182 | 4459 ft | 161 kts | 268° |
| 2026-05-07 12:17 | -27.43015 | -52.94361 | 4463 ft | 157 kts | 267° |
| 2026-05-07 12:17 | -27.43332 | -52.95546 | 4465 ft | 158 kts | 268° |
| 2026-05-07 12:17 | -27.43638 | -52.96734 | 4465 ft | 158 kts | 268° |
| 2026-05-07 12:17 | -27.43733 | -52.97892 | 4421 ft | 140 kts | 296° |
| 2026-05-07 12:18 | -27.43386 | -52.98890 | 4425 ft | 137 kts | 303° |
| 2026-05-07 12:18 | -27.43029 | -52.99906 | 4421 ft | 140 kts | 303° |
| 2026-05-07 12:18 | -27.42670 | -53.00891 | 4413 ft | 135 kts | 303° |
| 2026-05-07 12:18 | -27.42336 | -53.01868 | 4413 ft | 132 kts | 302° |
| 2026-05-07 12:19 | -27.42000 | -53.02854 | 4423 ft | 138 kts | 303° |
| 2026-05-07 12:19 | -27.41657 | -53.03856 | 4415 ft | 135 kts | 303° |
| 2026-05-07 12:19 | -27.41322 | -53.04821 | 4405 ft | 133 kts | 303° |
| 2026-05-07 12:19 | -27.40993 | -53.05790 | 4409 ft | 131 kts | 303° |
| 2026-05-07 12:20 | -27.40667 | -53.06745 | 4410 ft | 130 kts | 302° |
| 2026-05-07 12:20 | -27.40334 | -53.07707 | 4416 ft | 134 kts | 302° |
| 2026-05-07 12:20 | -27.39995 | -53.08700 | 4422 ft | 137 kts | 302° |
| 2026-05-07 12:20 | -27.39654 | -53.09702 | 4427 ft | 138 kts | 302° |
| 2026-05-07 12:21 | -27.39305 | -53.10717 | 4421 ft | 140 kts | 303° |
| 2026-05-07 12:21 | -27.38968 | -53.11739 | 4417 ft | 138 kts | 302° |
| 2026-05-07 12:21 | -27.38631 | -53.12756 | 4423 ft | 138 kts | 302° |
| 2026-05-07 12:21 | -27.38292 | -53.13777 | 4423 ft | 141 kts | 302° |
| 2026-05-07 12:22 | -27.37948 | -53.14810 | 4414 ft | 140 kts | 302° |
| 2026-05-07 12:22 | -27.37605 | -53.15831 | 4420 ft | 142 kts | 302° |
| 2026-05-07 12:22 | -27.37256 | -53.16869 | 4423 ft | 142 kts | 302° |
| 2026-05-07 12:22 | -27.36907 | -53.17903 | 4410 ft | 141 kts | 303° |
| 2026-05-07 12:23 | -27.36564 | -53.18935 | 4407 ft | 140 kts | 302° |
| 2026-05-07 12:23 | -27.36228 | -53.19961 | 4404 ft | 138 kts | 302° |
| 2026-05-07 12:23 | -27.35885 | -53.20973 | 4422 ft | 140 kts | 303° |
| 2026-05-07 12:23 | -27.35529 | -53.22003 | 4429 ft | 142 kts | 302° |
| 2026-05-07 12:24 | -27.35170 | -53.23041 | 4427 ft | 142 kts | 302° |
| 2026-05-07 12:24 | -27.34816 | -53.24075 | 4423 ft | 142 kts | 302° |
| 2026-05-07 12:24 | -27.34585 | -53.24752 | 4416 ft | 138 kts | 302° |
| 2026-05-07 12:24 | -27.34249 | -53.25752 | 4415 ft | 135 kts | 302° |
| 2026-05-07 12:25 | -27.33921 | -53.26745 | 4421 ft | 136 kts | 302° |
| 2026-05-07 12:25 | -27.33588 | -53.27747 | 4412 ft | 136 kts | 302° |
| 2026-05-07 12:25 | -27.33266 | -53.28737 | 4407 ft | 133 kts | 302° |
| 2026-05-07 12:25 | -27.32941 | -53.29721 | 4414 ft | 135 kts | 302° |
| 2026-05-07 12:26 | -27.32615 | -53.30717 | 4412 ft | 134 kts | 302° |
| 2026-05-07 12:26 | -27.32293 | -53.31707 | 4408 ft | 136 kts | 302° |
| 2026-05-07 12:26 | -27.31977 | -53.32684 | 4419 ft | 134 kts | 302° |
| 2026-05-07 12:26 | -27.31653 | -53.33696 | 4415 ft | 137 kts | 302° |
| 2026-05-07 12:27 | -27.31335 | -53.34690 | 4415 ft | 137 kts | 302° |
| 2026-05-07 12:27 | -27.31123 | -53.35743 | 4367 ft | 149 kts | 282° |
| 2026-05-07 12:27 | -27.31451 | -53.36897 | 4367 ft | 157 kts | 266° |
| 2026-05-07 12:27 | -27.31805 | -53.38049 | 4368 ft | 155 kts | 267° |
| 2026-05-07 12:28 | -27.32157 | -53.39212 | 4372 ft | 159 kts | 267° |
| 2026-05-07 12:28 | -27.32512 | -53.40397 | 4380 ft | 160 kts | 267° |
| 2026-05-07 12:28 | -27.32855 | -53.41587 | 4364 ft | 156 kts | 267° |
| 2026-05-07 12:28 | -27.33185 | -53.42728 | 4372 ft | 155 kts | 267° |
| 2026-05-07 12:29 | -27.33517 | -53.43885 | 4373 ft | 156 kts | 267° |
| 2026-05-07 12:29 | -27.33852 | -53.45049 | 4371 ft | 157 kts | 267° |
| 2026-05-07 12:29 | -27.34184 | -53.46198 | 4356 ft | 150 kts | 267° |
| 2026-05-07 12:29 | -27.34535 | -53.47328 | 4370 ft | 156 kts | 266° |
| 2026-05-07 12:30 | -27.34883 | -53.48507 | 4369 ft | 160 kts | 267° |
| 2026-05-07 12:30 | -27.35241 | -53.49684 | 4366 ft | 157 kts | 266° |
| 2026-05-07 12:30 | -27.35596 | -53.50847 | 4365 ft | 157 kts | 267° |
| 2026-05-07 12:30 | -27.35945 | -53.52000 | 4376 ft | 155 kts | 267° |
| 2026-05-07 12:31 | -27.36286 | -53.53148 | 4368 ft | 158 kts | 266° |
| 2026-05-07 12:31 | -27.36633 | -53.54318 | 4372 ft | 158 kts | 266° |
| 2026-05-07 12:31 | -27.36993 | -53.55480 | 4364 ft | 154 kts | 266° |
| 2026-05-07 12:31 | -27.37346 | -53.56616 | 4371 ft | 154 kts | 266° |
| 2026-05-07 12:32 | -27.37681 | -53.57752 | 4370 ft | 154 kts | 267° |
| 2026-05-07 12:32 | -27.38022 | -53.58915 | 4349 ft | 155 kts | 266° |
| 2026-05-07 12:32 | -27.38360 | -53.60053 | 4372 ft | 156 kts | 266° |
| 2026-05-07 12:32 | -27.38708 | -53.61191 | 4366 ft | 151 kts | 266° |
| 2026-05-07 12:33 | -27.39399 | -53.63414 | 4364 ft | 152 kts | 266° |
| 2026-05-07 12:33 | -27.39771 | -53.64541 | 4361 ft | 152 kts | 268° |
| 2026-05-07 12:33 | -27.40160 | -53.65659 | 4360 ft | 154 kts | 268° |
| 2026-05-07 12:34 | -27.40537 | -53.66800 | 4378 ft | 157 kts | 266° |
| 2026-05-07 12:34 | -27.40898 | -53.67971 | 4364 ft | 158 kts | 266° |
| 2026-05-07 12:34 | -27.41264 | -53.69122 | 4358 ft | 155 kts | 266° |
| 2026-05-07 12:34 | -27.41622 | -53.70263 | 4367 ft | 154 kts | 267° |
| 2026-05-07 12:35 | -27.41974 | -53.71408 | 4355 ft | 154 kts | 266° |
| 2026-05-07 12:35 | -27.42316 | -53.72541 | 4358 ft | 153 kts | 267° |
| 2026-05-07 12:35 | -27.42679 | -53.73684 | 4362 ft | 157 kts | 266° |
| 2026-05-07 12:35 | -27.43054 | -53.74849 | 4363 ft | 158 kts | 266° |
| 2026-05-07 12:36 | -27.43428 | -53.76006 | 4346 ft | 156 kts | 266° |
| 2026-05-07 12:36 | -27.43805 | -53.77127 | 4333 ft | 150 kts | 266° |
| 2026-05-07 12:36 | -27.44170 | -53.78228 | 4350 ft | 153 kts | 266° |
| 2026-05-07 12:36 | -27.44534 | -53.79386 | 4372 ft | 161 kts | 266° |
| 2026-05-07 12:37 | -27.44893 | -53.80578 | 4368 ft | 163 kts | 266° |
| 2026-05-07 12:37 | -27.45262 | -53.81790 | 4367 ft | 164 kts | 266° |
| 2026-05-07 12:37 | -27.45632 | -53.82982 | 4344 ft | 158 kts | 266° |
| 2026-05-07 12:37 | -27.45999 | -53.84121 | 4362 ft | 156 kts | 266° |
| 2026-05-07 12:38 | -27.46370 | -53.85279 | 4361 ft | 157 kts | 266° |
| 2026-05-07 12:38 | -27.46741 | -53.86451 | 4366 ft | 161 kts | 266° |
| 2026-05-07 12:38 | -27.47110 | -53.87637 | 4366 ft | 159 kts | 266° |
| 2026-05-07 12:38 | -27.47472 | -53.88817 | 4363 ft | 160 kts | 266° |
| 2026-05-07 12:39 | -27.47836 | -53.89989 | 4360 ft | 157 kts | 266° |
| 2026-05-07 12:39 | -27.48198 | -53.91143 | 4358 ft | 155 kts | 266° |
| 2026-05-07 12:39 | -27.48567 | -53.92295 | 4351 ft | 156 kts | 266° |
| 2026-05-07 12:39 | -27.48951 | -53.93442 | 4361 ft | 156 kts | 266° |
| 2026-05-07 12:40 | -27.49338 | -53.94600 | 4365 ft | 160 kts | 266° |
| 2026-05-07 12:40 | -27.49726 | -53.95773 | 4364 ft | 160 kts | 266° |
| 2026-05-07 12:40 | -27.50110 | -53.96955 | 4353 ft | 159 kts | 265° |
| 2026-05-07 12:40 | -27.50474 | -53.98094 | 4352 ft | 156 kts | 266° |
| 2026-05-07 12:41 | -27.50862 | -53.99233 | 4361 ft | 157 kts | 266° |
| 2026-05-07 12:41 | -27.51252 | -54.00387 | 4355 ft | 157 kts | 265° |
| 2026-05-07 12:41 | -27.51617 | -54.01540 | 4355 ft | 155 kts | 266° |
| 2026-05-07 12:41 | -27.51985 | -54.02689 | 4352 ft | 157 kts | 265° |
| 2026-05-07 12:42 | -27.52353 | -54.03842 | 4360 ft | 157 kts | 266° |
| 2026-05-07 12:42 | -27.52719 | -54.04993 | 4364 ft | 156 kts | 266° |
| 2026-05-07 12:42 | -27.53097 | -54.06157 | 4362 ft | 160 kts | 265° |
| 2026-05-07 12:42 | -27.53463 | -54.07336 | 4357 ft | 160 kts | 265° |
| 2026-05-07 12:43 | -27.53834 | -54.08508 | 4364 ft | 158 kts | 266° |
| 2026-05-07 12:43 | -27.54210 | -54.09652 | 4357 ft | 155 kts | 266° |
| 2026-05-07 12:43 | -27.54613 | -54.10767 | 4353 ft | 153 kts | 265° |
| 2026-05-07 12:43 | -27.55017 | -54.11888 | 4362 ft | 156 kts | 266° |
| 2026-05-07 12:44 | -27.55413 | -54.13051 | 4364 ft | 160 kts | 263° |
| 2026-05-07 12:44 | -27.55778 | -54.14242 | 4362 ft | 161 kts | 267° |
| 2026-05-07 12:44 | -27.56155 | -54.15415 | 4364 ft | 161 kts | 265° |
| 2026-05-07 12:44 | -27.56551 | -54.16583 | 4359 ft | 159 kts | 266° |
| 2026-05-07 12:45 | -27.56961 | -54.17739 | 4357 ft | 158 kts | 266° |
| 2026-05-07 12:45 | -27.57374 | -54.18894 | 4366 ft | 160 kts | 265° |
| 2026-05-07 12:45 | -27.57783 | -54.20053 | 4357 ft | 159 kts | 265° |
| 2026-05-07 12:45 | -27.58196 | -54.21206 | 4350 ft | 156 kts | 266° |
| 2026-05-07 12:46 | -27.58612 | -54.22330 | 4355 ft | 153 kts | 265° |
| 2026-05-07 12:46 | -27.59026 | -54.23456 | 4361 ft | 158 kts | 265° |
| 2026-05-07 12:46 | -27.59436 | -54.24618 | 4355 ft | 160 kts | 265° |
| 2026-05-07 12:46 | -27.59831 | -54.25798 | 4359 ft | 161 kts | 266° |
| 2026-05-07 12:47 | -27.60225 | -54.26995 | 4359 ft | 163 kts | 266° |
| 2026-05-07 12:47 | -27.60628 | -54.28205 | 4360 ft | 166 kts | 266° |
| 2026-05-07 12:47 | -27.61051 | -54.29435 | 4230 ft | 173 kts | 265° |
| 2026-05-07 12:47 | -27.61483 | -54.30711 | 3986 ft | 167 kts | 265° |
| 2026-05-07 12:48 | -27.61888 | -54.31851 | 3727 ft | 147 kts | 268° |
| 2026-05-07 12:48 | -27.62216 | -54.32895 | 3477 ft | 137 kts | 271° |
| 2026-05-07 12:48 | -27.62543 | -54.33876 | 3220 ft | 133 kts | 270° |
| 2026-05-07 12:48 | -27.62875 | -54.34847 | 2902 ft | 133 kts | 270° |
| 2026-05-07 12:49 | -27.63206 | -54.35825 | 2505 ft | 133 kts | 270° |
| 2026-05-07 12:49 | -27.63746 | -54.36742 | 2058 ft | 157 kts | 228° |
| 2026-05-07 12:49 | -27.64818 | -54.36968 | 1933 ft | 155 kts | 175° |
| 2026-05-07 12:49 | -27.65733 | -54.36574 | 1855 ft | 131 kts | 130° |
| 2026-05-07 12:50 | -27.66431 | -54.35970 | 1848 ft | 123 kts | 132° |
| 2026-05-07 12:50 | -27.67109 | -54.35430 | 1838 ft | 115 kts | 131° |
| 2026-05-07 12:50 | -27.67756 | -54.34934 | 1817 ft | 107 kts | 131° |
| 2026-05-07 12:50 | -27.68329 | -54.34509 | 1794 ft | 98 kts | 130° |
| 2026-05-07 12:51 | -27.68551 | -54.33921 | 1759 ft | 78 kts | 53° |
| 2026-05-07 12:51 | -27.68203 | -54.33515 | 1758 ft | 69 kts | 38° |
| 2026-05-07 12:51 | -27.67911 | -54.33113 | 1763 ft | 65 kts | 36° |
| 2026-05-07 12:51 | -27.67636 | -54.32696 | 1667 ft | 65 kts | 38° |
| 2026-05-07 12:52 | -27.67330 | -54.32304 | 1592 ft | 71 kts | 24° |
| 2026-05-07 12:52 | -27.66839 | -54.32477 | 1512 ft | 81 kts | 331° |
| 2026-05-07 12:52 | -27.66322 | -54.32581 | 1479 ft | 75 kts | 6° |
| 2026-05-07 12:52 | -27.65829 | -54.32550 | 1360 ft | 73 kts | 356° |
| 2026-05-07 12:53 | -27.65325 | -54.32594 | 1290 ft | 79 kts | 325° |
| 2026-05-07 12:53 | -27.64857 | -54.32971 | 1211 ft | 99 kts | 326° |
| 2026-05-07 12:53 | -27.64326 | -54.33505 | 1097 ft | 93 kts | 327° |
| 2026-05-07 12:53 | -27.63877 | -54.33874 | 1043 ft | 68 kts | 329° |
| 2026-05-07 12:54 | -27.63563 | -54.34204 | 1032 ft | 58 kts | 328° |
| 2026-05-07 12:54 | -27.63190 | -54.34586 | 1104 ft | 86 kts | 321° |
| 2026-05-07 12:54 | -27.63311 | -54.35222 | 1258 ft | 118 kts | 204° |
| 2026-05-07 12:54 | -27.63874 | -54.35157 | 1315 ft | 125 kts | 153° |
| 2026-05-07 12:55 | -27.64578 | -54.34202 | 1577 ft | 128 kts | 122° |
| 2026-05-07 12:55 | -27.65237 | -54.33459 | 1586 ft | 130 kts | 119° |
| 2026-05-07 12:55 | -27.65293 | -54.32689 | 1429 ft | 87 kts | 18° |
| 2026-05-07 12:55 | -27.64812 | -54.33117 | 1167 ft | 90 kts | 333° |
| 2026-05-07 12:56 | -27.64312 | -54.33475 | 1041 ft | 83 kts | 332° |
| 2026-05-07 12:56 | -27.63924 | -54.33853 | 1031 ft | 68 kts | 329° |
| 2026-05-07 12:56 | -27.63604 | -54.34135 | 1022 ft | 41 kts | 319° |
| 2026-05-07 12:56 | -27.63556 | -54.34184 | 1023 ft | 5 kts | 120° |
| 2026-05-07 12:57 | -27.63558 | -54.34178 | 1023 ft | 0 kts | 105° |
| 2026-05-07 13:09 | -27.63563 | -54.34164 | 1022 ft | 3 kts | 180° |
| 2026-05-07 13:10 | -27.63576 | -54.34148 | 1023 ft | 8 kts | 112° |
| 2026-05-07 13:10 | -27.63640 | -54.34079 | 1021 ft | 14 kts | 139° |
| 2026-05-07 13:10 | -27.63709 | -54.34008 | 1021 ft | 12 kts | 148° |
| 2026-05-07 13:10 | -27.63769 | -54.33961 | 1023 ft | 9 kts | 163° |
| 2026-05-07 13:11 | -27.63811 | -54.33925 | 1022 ft | 6 kts | 145° |
| 2026-05-07 13:11 | -27.63859 | -54.33877 | 1023 ft | 15 kts | 134° |
| 2026-05-07 13:11 | -27.63923 | -54.33815 | 1021 ft | 22 kts | 144° |
| 2026-05-07 13:11 | -27.64043 | -54.33778 | 1024 ft | 0 kts | 243° |
| 2026-05-07 13:12 | -27.64053 | -54.33802 | 1023 ft | 5 kts | 229° |
| 2026-05-07 13:12 | -27.64062 | -54.33804 | 1023 ft | 0 kts | 145° |